Dobrodošli na spletni strani vremenske postaje Senovo. Vse informacije so informativnega značaja, saj vremenska postaja ni del državne mreže meteoroloških postaj.

AKTUALNIH OBVESTIL NI.


Nevihte Od: 26-04-2018 14:00 Do: 22:59 Opozorilo za: Nevihte Stopnja: Rumena info button
Veter Od: 26-04-2018 18:00 Do: 23:59 Opozorilo za: Veter Stopnja: Rumena info button

Pogled proti Armezu več informacij Pogled proti Armezu


Bohor več informacij Bohor


Lisca več informacij Lisca


opozorilo za Nevihte več informacij blitzortung!


Radar padavin več informacij rain snow radar


Obiščite še:

Template documentation
and downloads

And another site



METAR v bližini

   
LJLJ - Ljubljana
Posodobljeno: 26-04-2018 11:30
pretežno oblačno  
pretežno oblačno  
   Veter: JV 5.6 km/h
Veter: JV 5.6 km/h
Temperatura: 17°C
Točka rosišča: 12°C
Vlažnost: 73%
Zračni tlak: 1014 hPa
Oblaki: pretežno oblačno
Vidljivost: More than 10 km
Podrobnosti o oblakih: nekaj oblakov 1676.4 m,
pretežno oblačno 1981.2 m
LJLJ 260930Z 13003KT 100V180 9999 FEW055 BKN065 17/12 Q1014 NOSIG
LJCE - Cerklje ob Krki
Posodobljeno: 26-04-2018 11:00
jasno  
jasno  
   Veter: različen 3.7 km/h
Veter: različen 3.7 km/h
Temperatura: 20°C
Točka rosišča: 11°C
Vlažnost: 56%
Zračni tlak: 1014 hPa
Vidljivost: More than 10 km
Podrobnosti o oblakih: jasno
LJCE 260900Z VRB02KT CAVOK 20/11 Q1014 RMK BLU
LJMB - Maribor
Posodobljeno: 26-04-2018 11:30
jasno  
jasno  
   Veter: Vzhod 14.8 km/h
Veter: Vzhod 14.8 km/h
Temperatura: 20°C
Točka rosišča: 9°C
Vlažnost: 49%
Zračni tlak: 1014 hPa
Vidljivost: More than 10 km
Podrobnosti o oblakih: jasno
LJMB 260930Z 10008KT CAVOK 20/09 Q1014
LJPZ - Portorož
Posodobljeno: 26-04-2018 11:30
jasno  
jasno  
   Veter: JV 13 km/h
Veter: JV 13 km/h
Temperatura: 24°C
Točka rosišča: 12°C
Vlažnost: 47%
Zračni tlak: 1012 hPa
Vidljivost: More than 10 km
Podrobnosti o oblakih: jasno
LJPZ 260930Z 14007KT 090V190 CAVOK 24/12 Q1012
LDRI - Rijeka, Airport, Croatia
Posodobljeno: 26-04-2018 11:30
nekaj oblakov  
nekaj oblakov  
   Veter: Zahod 9.3 km/h
Veter: Zahod 9.3 km/h
Temperatura: 22°C
Točka rosišča: 11°C
Vlažnost: 50%
Zračni tlak: 1014 hPa
Oblaki: nekaj oblakov
Vidljivost: More than 10 km
Podrobnosti o oblakih: nekaj oblakov 1432.6 m
LDRI 260930Z 26005KT 230V320 9999 FEW047 22/11 Q1014
LOWK - Klagenfurt, Airport, Avstia
Posodobljeno: 26-04-2018 11:20
delno oblačno  
delno oblačno  
   Veter: različen 5.6 km/h
Veter: različen 5.6 km/h
Temperatura: 20°C
Točka rosišča: 11°C
Vlažnost: 56%
Zračni tlak: 1013 hPa
Oblaki: delno oblačno
Vidljivost: More than 10 km
Podrobnosti o oblakih: nekaj oblakov 1524 m,
delno oblačno 1828.8 m
LOWK 260920Z VRB03KT 9999 FEW050 SCT060 20/11 Q1013 NOSIG

Script developed by  Saratoga-weather.org Adapted for the template by  Weerstation Leuven

Vremenski podatki so objavljeni na:

European Weather Network

WeatherCloud

Weather Underground

AWEKAS

HAMweather, WeatherForYou, PWS Weather

MapView

Geostik

Slovenia weather network

Oprema, ki se uporablja:

Vremenski program
Cumulus

Vremenski server
Asus

Cumulus

Asus